Time;durP1;ratioP1;P1;durP2;ratioP2;P2;SDS_P1;SDS_P2;PMS_P1;PMS_P2;Temp;Humidity;BMP_temperature;BMP_pressure;BME280_temperature;BME280_humidity;BME280_pressure;Samples;Min_cycle;Max_cycle;Signal;HPM_P1;HPM_P2
2022/04/21 00:00:30;;;;;;;13.80;12.43;;;;;;;6.32;68.67;101462.34;2089643;28;20555;-70
2022/04/21 00:01:31;;;;;;;12.52;11.27;;;;;;;6.32;68.79;101463.16;2088786;28;20184;-70
2022/04/21 00:02:32;;;;;;;13.23;11.93;;;;;;;6.35;68.62;101462.38;2089340;28;20206;-70
2022/04/21 00:03:32;;;;;;;13.60;12.20;;;;;;;6.39;68.69;101457.69;2088881;28;20991;-70
2022/04/21 00:04:33;;;;;;;14.50;12.37;;;;;;;6.38;68.50;101460.81;2079979;28;20184;-70
2022/04/21 00:05:34;;;;;;;13.77;12.47;;;;;;;6.39;68.05;101451.38;2080128;28;20175;-70
2022/04/21 00:06:34;;;;;;;12.70;11.48;;;;;;;6.37;68.06;101453.75;2089229;28;20187;-70
2022/04/21 00:07:35;;;;;;;13.37;12.07;;;;;;;6.39;68.65;101452.19;2089364;28;20178;-70
2022/04/21 00:08:37;;;;;;;12.53;11.33;;;;;;;5.86;68.15;101376.75;2089493;28;20204;-70
2022/04/21 00:09:37;;;;;;;13.52;12.13;;;;;;;6.38;68.38;101458.88;2088490;28;20173;-70
2022/04/21 00:10:38;;;;;;;13.20;11.90;;;;;;;6.39;68.08;101459.63;2089535;28;20174;-70
2022/04/21 00:11:38;;;;;;;13.57;12.17;;;;;;;6.43;68.56;101463.22;2089238;28;20251;-70
2022/04/21 00:12:39;;;;;;;13.37;12.07;;;;;;;6.43;68.51;101449.44;2080656;28;20184;-70
2022/04/21 00:13:39;;;;;;;13.93;12.53;;;;;;;5.66;68.08;101345.13;2079960;28;20172;-70
2022/04/21 00:14:40;;;;;;;14.60;13.10;;;;;;;6.44;68.51;101465.59;2088733;28;20191;-70
2022/04/21 00:15:40;;;;;;;13.77;12.37;;;;;;;6.32;68.50;101443.09;2088803;28;20200;-70
2022/04/21 00:16:41;;;;;;;14.60;13.20;;;;;;;6.16;68.27;101418.59;2088970;28;20176;-70
2022/04/21 00:17:41;;;;;;;14.30;12.90;;;;;;;6.44;68.38;101454.56;2089415;28;20200;-70
2022/04/21 00:18:42;;;;;;;13.83;12.47;;;;;;;6.39;68.44;101454.94;2089480;28;20169;-70
2022/04/21 00:19:43;;;;;;;14.52;13.05;;;;;;;6.40;68.32;101461.25;2088711;28;20226;-70
2022/04/21 00:20:43;;;;;;;14.97;13.47;;;;;;;6.39;68.33;101459.63;2089418;28;20254;-70
2022/04/21 00:24:22;;;;;;;15.68;14.07;;;;;;;6.40;67.96;101458.50;2089087;28;20671;-70
2022/04/21 00:25:23;;;;;;;16.23;13.53;;;;;;;6.35;67.66;101462.38;2088367;28;20224;-70
2022/04/21 00:26:23;;;;;;;16.20;14.57;;;;;;;6.33;67.32;101463.94;2089463;28;20191;-70
2022/04/21 00:27:24;;;;;;;15.07;13.47;;;;;;;6.28;67.91;101447.78;2088886;28;20168;-70
2022/04/21 00:28:26;;;;;;;15.80;14.10;;;;;;;6.28;67.64;101469.78;2089088;28;20204;-70
2022/04/21 00:29:26;;;;;;;15.35;13.85;;;;;;;5.76;67.25;101373.88;2088548;28;20179;-70
2022/04/21 00:30:27;;;;;;;15.63;13.93;;;;;;;6.19;67.53;101441.81;2089334;28;20172;-70
2022/04/21 00:31:27;;;;;;;14.07;12.67;;;;;;;6.35;67.84;101456.88;2089282;28;20161;-70
2022/04/21 00:32:28;;;;;;;16.37;14.77;;;;;;;6.38;67.59;101460.81;2089022;28;20175;-70
2022/04/21 00:33:28;;;;;;;16.57;14.90;;;;;;;6.37;67.94;101460.03;2088649;28;20177;-70
2022/04/21 00:34:29;;;;;;;14.80;13.37;;;;;;;6.39;67.57;101457.69;2089028;28;20177;-70
2022/04/21 00:35:29;;;;;;;13.90;12.60;;;;;;;6.35;68.27;101442.34;2079253;28;20189;-70
2022/04/21 00:36:30;;;;;;;15.47;13.97;;;;;;;6.38;67.90;101450.59;2080470;28;20179;-70
2022/04/21 00:37:31;;;;;;;13.73;12.33;;;;;;;6.34;68.11;101452.53;2088586;28;20224;-70
2022/04/21 00:38:31;;;;;;;14.43;13.03;;;;;;;6.42;67.80;101453.38;2089483;28;20160;-70
2022/04/21 00:39:32;;;;;;;13.80;12.40;;;;;;;6.40;67.63;101456.50;2088407;28;20166;-70
2022/04/21 00:40:33;;;;;;;14.57;13.17;;;;;;;6.38;67.38;101450.59;2089265;28;20286;-70
2022/04/21 00:41:33;;;;;;;15.20;13.60;;;;;;;6.41;68.19;101454.56;2089194;28;20208;-70
2022/04/21 00:42:34;;;;;;;14.97;13.47;;;;;;;6.37;67.77;101459.25;2089130;28;20173;-70
2022/04/21 00:43:34;;;;;;;14.77;13.30;;;;;;;6.36;67.85;101455.69;2088693;28;20183;-70
2022/04/21 00:44:35;;;;;;;14.63;12.57;;;;;;;5.71;68.09;101350.28;2088760;28;20173;-70
2022/04/21 00:45:35;;;;;;;14.80;13.13;;;;;;;6.28;68.13;101448.56;2088331;28;20176;-70
2022/04/21 00:46:40;;;;;;;14.07;12.77;;;;;;;6.25;67.85;101440.31;2088898;28;20172;-70
2022/04/21 00:47:43;;;;;;;14.43;13.00;;;;;;;5.87;68.03;101380.28;2089166;28;20653;-70
2022/04/21 00:48:45;;;;;;;14.90;13.40;;;;;;;6.30;68.19;101446.22;2089104;28;20192;-70
2022/04/21 00:49:46;;;;;;;14.63;12.70;;;;;;;5.63;68.21;101348.63;2088353;28;20208;-70
2022/04/21 00:50:47;;;;;;;15.65;14.05;;;;;;;6.20;67.72;101441.44;2089322;28;20172;-70
2022/04/21 00:51:52;;;;;;;15.70;14.10;;;;;;;6.25;68.02;101459.56;2088995;28;20704;-70
2022/04/21 00:52:54;;;;;;;14.90;13.40;;;;;;;6.22;68.27;101449.31;2088945;28;20219;-70
2022/04/21 00:53:54;;;;;;;14.32;12.93;;;;;;;5.21;68.47;101300.75;2088553;28;20179;-70
2022/04/21 00:54:55;;;;;;;14.00;12.70;;;;;;;6.15;68.03;101452.03;2088539;28;20267;-70
2022/04/21 00:55:56;;;;;;;15.27;13.73;;;;;;;5.82;68.51;101399.88;2088554;28;20204;-70
2022/04/21 00:56:59;;;;;;;14.13;12.63;;;;;;;6.18;68.41;101459.50;2088882;28;20180;-70
2022/04/21 00:58:04;;;;;;;15.07;13.55;;;;;;;6.07;68.59;101440.16;2088944;28;20182;-70
2022/04/21 00:59:06;;;;;;;16.00;14.45;;;;;;;5.84;68.77;101431.34;2088854;28;20564;-70
2022/04/21 01:00:08;;;;;;;16.52;14.95;;;;;;;5.87;68.53;101402.28;2088609;28;20184;-70
2022/04/21 01:02:46;;;;;;;17.00;15.40;;;;;;;6.16;68.79;101453.59;2089110;28;20205;-70
2022/04/21 01:02:50;;;;;;;15.63;14.10;;;;;;;6.17;68.75;101461.47;2088760;28;20237;-70
2022/04/21 01:03:51;;;;;;;15.90;14.35;;;;;;;6.15;68.40;101458.28;2088658;28;20160;-70
2022/04/21 01:04:52;;;;;;;16.60;14.93;;;;;;;6.20;68.85;101462.69;2088449;28;20267;-70
2022/04/21 01:05:53;;;;;;;15.77;14.25;;;;;;;5.83;68.38;101395.94;2088395;28;20312;-70
2022/04/21 01:06:55;;;;;;;15.40;13.90;;;;;;;6.22;68.70;101454.81;2088568;28;20304;-70
2022/04/21 01:07:58;;;;;;;16.27;14.68;;;;;;;6.25;68.37;101463.09;2089065;28;20179;-70
2022/04/21 01:08:58;;;;;;;15.10;13.60;;;;;;;6.26;68.69;101456.41;2081268;28;20728;-70
2022/04/21 01:09:59;;;;;;;15.57;14.07;;;;;;;6.16;68.53;101428.81;2080253;28;20304;-70
2022/04/21 01:10:59;;;;;;;14.90;13.40;;;;;;;6.26;68.20;101445.41;2080832;28;20177;-70
2022/04/21 01:12:00;;;;;;;14.70;13.30;;;;;;;6.22;68.54;101463.06;2080882;28;20189;-70
2022/04/21 01:13:04;;;;;;;15.10;13.60;;;;;;;6.20;68.98;101457.94;2080479;28;20655;-70
2022/04/21 01:14:04;;;;;;;15.77;14.18;;;;;;;6.01;68.98;101424.41;2079946;28;20582;-70
2022/04/21 01:15:06;;;;;;;15.37;13.87;;;;;;;6.11;69.08;101440.19;2080102;28;20189;-70
2022/04/21 01:16:06;;;;;;;13.98;12.57;;;;;;;6.24;68.68;101461.53;2080000;28;20642;-70
2022/04/21 01:17:08;;;;;;;14.33;12.90;;;;;;;6.26;69.28;101450.13;2086302;28;20571;-70
2022/04/21 01:18:09;;;;;;;14.63;13.13;;;;;;;6.27;68.76;101457.22;2088962;28;20550;-70
2022/04/21 01:19:10;;;;;;;14.07;12.67;;;;;;;6.29;68.96;101452.09;2088746;28;20563;-70
2022/04/21 01:20:19;;;;;;;14.33;12.87;;;;;;;6.34;69.03;101468.25;2088556;28;20180;-70
2022/04/21 01:21:20;;;;;;;13.45;12.25;;;;;;;6.26;68.41;101467.41;2088922;28;20620;-70
2022/04/21 01:22:20;;;;;;;12.90;11.70;;;;;;;6.26;68.12;101463.91;2088903;28;20281;-70
2022/04/21 01:23:21;;;;;;;13.03;11.83;;;;;;;6.19;68.90;101445.34;2088634;28;20206;-70
2022/04/21 01:24:21;;;;;;;13.57;12.27;;;;;;;6.16;68.35;101440.59;2088710;28;20187;-70
2022/04/21 01:25:23;;;;;;;14.17;12.87;;;;;;;6.29;68.24;101454.84;2088007;28;20190;-70
2022/04/21 01:26:28;;;;;;;13.63;12.32;;;;;;;6.29;68.55;101458.41;2088763;28;20646;-70
2022/04/21 01:27:31;;;;;;;13.63;12.23;;;;;;;6.29;68.19;101466.66;2080323;28;20599;-70
2022/04/21 01:28:32;;;;;;;14.32;13.02;;;;;;;6.28;68.38;101465.09;2081672;28;20674;-70
2022/04/21 01:29:32;;;;;;;13.50;12.20;;;;;;;6.29;68.56;101465.84;2079180;28;20605;-70
2022/04/21 01:30:33;;;;;;;14.10;12.80;;;;;;;6.28;68.33;101459.59;2080153;28;20175;-70
2022/04/21 01:31:33;;;;;;;13.67;12.37;;;;;;;6.27;68.34;101465.47;2088837;28;20187;-70
2022/04/21 01:32:36;;;;;;;13.30;12.10;;;;;;;6.27;67.88;101455.25;2088964;28;20200;-70
2022/04/21 01:33:37;;;;;;;13.77;12.48;;;;;;;6.29;68.19;101452.91;2087836;28;20183;-70
2022/04/21 01:34:38;;;;;;;13.38;12.13;;;;;;;6.25;68.35;101449.31;2088316;28;20176;-70
2022/04/21 01:35:38;;;;;;;12.97;11.77;;;;;;;5.55;68.34;101329.72;2079260;28;20191;-70
2022/04/21 01:41:08;;;;;;;14.43;13.03;;;;;;;6.04;68.28;101405.16;2073356;28;20182;-70
2022/04/21 01:41:56;;;;;;;13.75;12.38;;;;;;;6.30;68.06;101434.44;2089014;28;20186;-70
2022/04/21 01:42:57;;;;;;;14.00;12.70;;;;;;;6.28;68.14;101436.75;2088627;28;20650;-70
2022/04/21 01:43:57;;;;;;;14.10;12.57;;;;;;;6.28;68.02;101432.06;2088618;28;20173;-70
2022/04/21 01:44:58;;;;;;;13.20;11.90;;;;;;;5.57;68.04;101322.66;2088586;28;20214;-70
2022/04/21 01:45:58;;;;;;;13.80;12.40;;;;;;;6.28;68.12;101437.56;2087879;28;20177;-70
2022/04/21 01:46:59;;;;;;;13.57;11.90;;;;;;;6.29;68.29;101430.06;2088496;28;20639;-70
2022/04/21 01:48:00;;;;;;;14.60;13.20;;;;;;;6.31;68.54;101428.53;2079879;28;20184;-70
2022/04/21 01:49:00;;;;;;;13.80;12.50;;;;;;;6.32;68.27;101432.06;2079629;28;20193;-70
2022/04/21 01:50:07;;;;;;;15.27;13.20;;;;;;;6.31;67.97;101422.25;2088540;28;20183;-70
2022/04/21 01:51:07;;;;;;;14.95;12.30;;;;;;;6.32;68.29;101429.31;2089018;28;20165;-70
2022/04/21 01:52:08;;;;;;;13.60;12.30;;;;;;;6.31;68.72;101428.53;2088692;28;20177;-70
2022/04/21 01:53:08;;;;;;;13.60;12.20;;;;;;;6.14;68.47;101412.69;2088678;28;20495;-70
2022/04/21 01:54:09;;;;;;;14.17;12.70;;;;;;;6.26;68.22;101414.34;2088339;28;20184;-70
2022/04/21 01:55:10;;;;;;;13.60;12.30;;;;;;;6.24;68.18;101411.97;2088600;28;20914;-70
2022/04/21 01:56:11;;;;;;;14.20;12.80;;;;;;;6.22;68.78;101416.28;2087842;28;20574;-70
2022/04/21 01:57:11;;;;;;;13.90;12.50;;;;;;;5.31;68.11;101269.84;2088478;28;20187;-70
2022/04/21 01:58:12;;;;;;;14.27;12.87;;;;;;;6.15;67.94;101413.50;2088779;28;20263;-70
2022/04/21 01:59:13;;;;;;;14.07;12.73;;;;;;;6.11;68.26;101413.44;2088567;28;20184;-70
2022/04/21 02:00:14;;;;;;;13.67;12.40;;;;;;;6.09;68.10;101412.25;2088345;28;20423;-70
2022/04/21 02:01:14;;;;;;;14.13;12.83;;;;;;;6.02;68.19;101403.97;2088729;28;20183;-70
2022/04/21 02:02:15;;;;;;;14.57;13.17;;;;;;;6.05;68.42;101417.72;2088799;28;20703;-70
2022/04/21 02:03:15;;;;;;;14.97;13.53;;;;;;;6.04;68.19;101410.66;2088559;28;20214;-70
2022/04/21 02:04:16;;;;;;;14.47;12.97;;;;;;;6.05;68.03;101406.72;2088304;28;20645;-70
2022/04/21 02:05:17;;;;;;;14.73;12.33;;;;;;;4.82;68.18;101215.28;2087904;28;20184;-70
2022/04/21 02:06:17;;;;;;;14.37;13.07;;;;;;;6.03;67.88;101409.09;2088302;28;20247;-70
2022/04/21 02:07:18;;;;;;;14.80;13.47;;;;;;;5.57;68.37;101346.63;2088360;28;20518;-70
2022/04/21 02:08:19;;;;;;;15.40;13.87;;;;;;;5.97;67.98;101407.88;2088760;28;20187;-70
2022/04/21 02:09:19;;;;;;;16.83;15.20;;;;;;;5.61;67.93;101341.94;2088244;28;20183;-70
2022/04/21 02:10:21;;;;;;;16.57;15.07;;;;;;;6.00;67.82;101409.84;2088393;28;20172;-70
2022/04/21 02:11:22;;;;;;;16.05;14.55;;;;;;;5.93;68.23;101404.28;2088824;28;20669;-70
2022/04/21 02:12:24;;;;;;;15.43;13.93;;;;;;;5.91;67.93;101405.84;2088833;28;20716;-70
2022/04/21 02:13:24;;;;;;;13.48;12.07;;;;;;;5.91;68.37;101412.16;2088207;28;20184;-70
2022/04/21 02:14:25;;;;;;;17.30;15.60;;;;;;;5.88;68.24;101407.41;2088608;28;20274;-70
2022/04/21 02:15:26;;;;;;;16.27;14.57;;;;;;;5.34;68.22;101322.06;2087953;28;20180;-70
2022/04/21 02:16:26;;;;;;;14.00;12.70;;;;;;;5.88;68.45;101412.09;2088114;28;20535;-70
2022/04/21 02:17:28;;;;;;;14.57;13.17;;;;;;;5.77;68.26;101386.44;2088323;28;20188;-70
2022/04/21 02:18:28;;;;;;;14.30;12.93;;;;;;;5.82;68.74;101395.19;2088827;28;20233;-70
2022/04/21 02:19:29;;;;;;;16.37;14.30;;;;;;;5.87;68.72;101411.31;2079196;28;20180;-70
2022/04/21 02:20:29;;;;;;;15.00;13.60;;;;;;;5.89;68.64;101397.97;2080095;28;20177;-70
2022/04/21 02:21:30;;;;;;;14.27;12.87;;;;;;;5.85;68.08;101390.88;2088636;28;20184;-70
2022/04/21 02:22:31;;;;;;;14.27;12.90;;;;;;;5.91;68.39;101401.16;2088692;28;20187;-70
2022/04/21 02:23:31;;;;;;;14.30;12.80;;;;;;;5.91;68.06;101394.84;2088055;28;20180;-70
2022/04/21 02:24:32;;;;;;;14.27;12.93;;;;;;;5.41;68.15;101327.66;2088533;28;20263;-70
2022/04/21 02:25:32;;;;;;;14.40;12.97;;;;;;;5.89;67.98;101402.69;2088293;28;20219;-70
2022/04/21 02:26:33;;;;;;;15.90;14.20;;;;;;;5.89;68.54;101397.97;2088464;28;20184;-70
2022/04/21 02:27:35;;;;;;;14.37;12.67;;;;;;;5.88;68.50;101396.41;2090222;28;20654;-70
2022/04/21 02:28:36;;;;;;;16.23;14.63;;;;;;;5.87;68.36;101388.53;2090080;28;20207;-70
2022/04/21 02:29:36;;;;;;;15.63;14.03;;;;;;;5.88;68.82;101392.84;2089579;28;20211;-70
2022/04/21 02:30:37;;;;;;;14.80;13.40;;;;;;;5.88;68.46;101396.41;2090371;28;20192;-70
2022/04/21 02:31:37;;;;;;;15.83;14.17;;;;;;;5.84;68.58;101395.56;2090056;28;20195;-70
2022/04/21 02:32:38;;;;;;;16.80;15.20;;;;;;;5.46;68.80;101337.50;2090351;28;20617;-70
2022/04/21 02:33:38;;;;;;;17.97;16.17;;;;;;;5.83;68.81;101396.75;2089596;28;20173;-70
2022/04/21 02:34:41;;;;;;;15.97;14.33;;;;;;;5.77;68.61;101394.69;2089668;28;20176;-70
2022/04/21 02:35:42;;;;;;;17.30;15.60;;;;;;;5.78;68.89;101397.06;2089732;28;20264;-70
2022/04/21 02:36:43;;;;;;;15.48;13.90;;;;;;;5.68;68.79;101380.47;2089426;28;20624;-70
2022/04/21 02:37:46;;;;;;;16.10;14.60;;;;;;;5.75;69.26;101384.06;2089992;28;20308;-70
2022/04/21 02:38:47;;;;;;;16.38;14.77;;;;;;;5.83;69.15;101395.94;2090284;28;20193;-70
2022/04/21 02:39:51;;;;;;;15.17;13.77;;;;;;;5.78;69.26;101391.56;2089418;28;20188;-70
2022/04/21 02:40:51;;;;;;;15.10;13.60;;;;;;;5.89;69.06;101408.19;2090144;28;20645;-70
2022/04/21 02:41:52;;;;;;;15.43;14.03;;;;;;;5.86;69.23;101404.25;2090252;28;20555;-70
2022/04/21 02:42:54;;;;;;;15.77;14.27;;;;;;;5.87;69.42;101405.03;2090171;28;20180;-70
2022/04/21 02:43:55;;;;;;;15.98;14.48;;;;;;;5.89;69.49;101411.72;2089447;28;20176;-70
2022/04/21 02:44:55;;;;;;;16.97;15.37;;;;;;;5.86;68.85;101401.50;2089736;28;20223;-70
2022/04/21 02:45:56;;;;;;;16.67;15.17;;;;;;;5.83;69.23;101405.00;2089626;28;20186;-70
2022/04/21 02:46:58;;;;;;;16.63;15.03;;;;;;;5.83;69.80;101402.25;2089771;28;20219;-70
2022/04/21 02:47:59;;;;;;;16.80;15.20;;;;;;;5.85;69.44;101402.66;2090206;28;20180;-70
2022/04/21 02:49:01;;;;;;;17.23;15.53;;;;;;;5.87;69.06;101410.53;2089801;28;20212;-70
2022/04/21 02:50:02;;;;;;;16.95;15.23;;;;;;;5.89;69.25;101408.97;2089746;28;20176;-70
2022/04/21 02:51:03;;;;;;;16.90;15.23;;;;;;;5.77;69.17;101387.25;2090212;28;20188;-70
2022/04/21 02:52:09;;;;;;;17.37;15.57;;;;;;;5.87;69.37;101410.53;2090049;28;20207;-70
2022/04/21 02:53:12;;;;;;;16.73;15.13;;;;;;;4.85;69.64;101252.19;2090078;28;20250;-70
2022/04/21 02:58:11;;;;;;;17.35;15.55;;;;;;;4.96;69.68;101242.88;2089839;28;20663;-70
2022/04/21 02:59:12;;;;;;;17.40;15.70;;;;;;;5.99;69.42;101394.50;2089831;28;20207;-70
2022/04/21 03:00:13;;;;;;;17.37;15.60;;;;;;;6.03;69.73;101398.09;2089516;28;20183;-70
2022/04/21 03:01:13;;;;;;;17.07;15.37;;;;;;;6.04;69.71;101390.59;2090024;28;20269;-70
2022/04/21 03:02:14;;;;;;;16.57;14.83;;;;;;;5.81;69.97;101374.34;2090020;28;20181;-70
2022/04/21 03:03:14;;;;;;;16.53;14.50;;;;;;;6.05;69.75;101392.97;2090085;28;20517;-70
2022/04/21 03:04:15;;;;;;;15.73;14.30;;;;;;;6.06;69.39;101393.78;2089228;28;20184;-70
2022/04/21 03:05:15;;;;;;;15.93;14.43;;;;;;;5.90;69.68;101377.53;2089363;28;20180;-70
2022/04/21 03:06:16;;;;;;;16.17;14.67;;;;;;;5.96;69.91;101387.03;2089749;28;20191;-70
2022/04/21 03:07:22;;;;;;;16.07;14.47;;;;;;;6.02;69.64;101396.50;2089277;28;20207;-70
2022/04/21 03:08:23;;;;;;;17.58;15.77;;;;;;;6.03;70.20;101394.53;2090017;28;20613;-70
2022/04/21 03:09:23;;;;;;;16.43;14.87;;;;;;;6.02;69.83;101391.00;2089367;28;20544;-70
2022/04/21 03:10:24;;;;;;;17.10;15.47;;;;;;;6.04;69.84;101399.66;2089737;28;20199;-70
2022/04/21 03:11:25;;;;;;;17.97;16.17;;;;;;;6.05;69.69;101401.22;2089975;28;20183;-71
2022/04/21 03:12:26;;;;;;;18.23;16.43;;;;;;;5.98;70.38;101390.19;2090007;28;20173;-70
2022/04/21 03:13:27;;;;;;;17.08;15.38;;;;;;;6.08;70.52;101402.41;2089347;28;20256;-70
2022/04/21 03:14:27;;;;;;;16.53;14.93;;;;;;;6.07;69.61;101401.66;2089727;28;20168;-70
2022/04/21 03:15:28;;;;;;;17.00;15.40;;;;;;;5.94;69.38;101383.09;2089000;28;20180;-70
2022/04/21 03:16:28;;;;;;;17.03;15.33;;;;;;;6.04;69.86;101405.16;2089878;28;20173;-70
2022/04/21 03:17:29;;;;;;;17.30;15.53;;;;;;;6.04;70.39;101404.34;2089504;28;20234;-70
2022/04/21 03:18:29;;;;;;;17.43;15.73;;;;;;;6.04;70.44;101398.84;2089967;28;20160;-70
2022/04/21 03:19:30;;;;;;;16.53;14.83;;;;;;;6.05;69.81;101401.22;2089031;28;20165;-70
2022/04/21 03:24:29;;;;;;;15.77;14.25;;;;;;;6.00;69.94;101398.84;2090072;28;20160;-70
2022/04/21 03:25:32;;;;;;;15.27;13.77;;;;;;;5.99;70.25;101396.47;2088853;28;20172;-70
2022/04/21 03:26:32;;;;;;;16.35;14.80;;;;;;;5.99;69.92;101407.47;2089697;28;20566;-70
2022/04/21 03:27:34;;;;;;;15.90;14.37;;;;;;;5.16;69.65;101290.94;2089388;28;20215;-70
2022/04/21 03:28:34;;;;;;;16.35;14.75;;;;;;;5.95;69.50;101412.19;2089588;28;20207;-70
2022/04/21 03:29:37;;;;;;;15.53;14.07;;;;;;;4.98;69.45;101264.47;2088988;28;20176;-70
2022/04/21 03:30:38;;;;;;;15.57;14.07;;;;;;;5.93;69.90;101420.81;2089955;28;20176;-70
2022/04/21 03:31:38;;;;;;;17.53;15.83;;;;;;;5.93;69.52;101423.56;2089711;28;20634;-70
2022/04/21 03:32:39;;;;;;;16.50;14.80;;;;;;;5.93;70.00;101420.00;2089866;28;20175;-70
2022/04/21 03:33:40;;;;;;;17.67;14.80;;;;;;;5.91;69.64;101423.16;2089083;28;20176;-70
2022/04/21 03:34:42;;;;;;;16.83;15.13;;;;;;;5.91;69.72;101425.09;2089150;28;20231;-70
2022/04/21 03:35:42;;;;;;;16.95;15.32;;;;;;;5.62;69.37;101382.00;2089160;28;20450;-70
2022/04/21 03:36:53;;;;;;;16.97;15.13;;;;;;;5.88;69.68;101429.41;2089157;28;20183;-70
2022/04/21 03:37:54;;;;;;;16.90;14.90;;;;;;;5.85;70.15;101424.66;2080936;28;20599;-70
2022/04/21 03:38:54;;;;;;;16.43;14.83;;;;;;;5.78;69.29;101416.31;2081457;28;20181;-70
2022/04/21 03:39:55;;;;;;;17.13;15.30;;;;;;;5.82;70.17;101417.19;2080954;28;20716;-70
2022/04/21 03:40:56;;;;;;;17.40;15.23;;;;;;;5.81;69.32;101428.56;2085501;28;20270;-70
2022/04/21 03:41:57;;;;;;;17.27;15.48;;;;;;;5.73;69.68;101413.13;2089720;28;20176;-70
2022/04/21 03:42:57;;;;;;;18.63;16.73;;;;;;;5.79;69.70;101426.16;2089723;28;20207;-70
2022/04/21 03:43:58;;;;;;;18.23;16.37;;;;;;;5.76;69.14;101432.44;2089149;28;20175;-70
2022/04/21 03:44:59;;;;;;;18.00;16.10;;;;;;;5.73;69.62;101418.63;2089120;28;20180;-70
2022/04/21 03:46:00;;;;;;;17.80;16.00;;;;;;;5.58;70.18;101408.66;2089184;28;20208;-70
2022/04/21 03:47:01;;;;;;;19.57;17.57;;;;;;;5.56;69.62;101417.31;2089301;28;20172;-70
2022/04/21 03:48:02;;;;;;;19.03;17.03;;;;;;;5.49;69.57;101416.47;2089514;28;20173;-70
2022/04/21 03:49:03;;;;;;;17.85;16.00;;;;;;;5.49;70.43;101427.47;2089222;28;20216;-70
2022/04/21 03:50:05;;;;;;;19.17;17.17;;;;;;;5.38;70.38;101421.84;2089113;28;20180;-70
2022/04/21 03:51:06;;;;;;;18.70;16.55;;;;;;;4.84;70.00;101336.53;2089765;28;20187;-70
2022/04/21 03:52:08;;;;;;;19.03;17.03;;;;;;;5.39;70.22;101423.44;2089620;28;20642;-70
2022/04/21 03:53:08;;;;;;;18.85;16.92;;;;;;;5.35;70.03;101425.38;2089583;28;20185;-70
2022/04/21 03:54:09;;;;;;;19.27;17.17;;;;;;;5.21;70.78;101413.44;2088902;28;20172;-70
2022/04/21 03:55:11;;;;;;;19.27;17.37;;;;;;;5.40;70.79;101421.47;2089125;28;20738;-70
2022/04/21 03:56:12;;;;;;;18.75;16.85;;;;;;;5.44;71.05;101423.09;2089217;28;20176;-70
2022/04/21 03:57:12;;;;;;;18.93;16.93;;;;;;;5.49;71.32;101422.75;2089227;28;20725;-70
2022/04/21 03:58:13;;;;;;;19.13;17.23;;;;;;;5.53;70.79;101428.28;2089231;28;20177;-70
2022/04/21 03:59:13;;;;;;;18.37;16.37;;;;;;;5.51;71.32;101420.41;2089292;28;20270;-70
2022/04/21 04:00:14;;;;;;;18.23;16.43;;;;;;;5.50;70.75;101424.34;2089288;28;20179;-70
2022/04/21 04:01:15;;;;;;;18.80;16.90;;;;;;;5.43;71.63;101413.25;2089572;28;20192;-70
2022/04/21 04:02:15;;;;;;;18.30;16.43;;;;;;;5.50;71.20;101429.03;2089573;28;20653;-70
2022/04/21 04:03:16;;;;;;;18.50;16.70;;;;;;;5.33;71.05;101397.47;2080585;28;20221;-70
2022/04/21 04:04:17;;;;;;;18.17;16.37;;;;;;;5.44;70.99;101425.06;2080106;28;20220;-70
2022/04/21 04:05:17;;;;;;;18.67;16.73;;;;;;;5.46;70.90;101440.00;2088642;28;20192;-70
2022/04/21 04:11:34;;;;;;;18.77;16.73;;;;;;;5.58;71.34;101409.47;2089393;28;20573;-70
2022/04/21 04:12:36;;;;;;;18.60;16.70;;;;;;;5.47;72.14;101388.56;2089609;28;20172;-70
2022/04/21 04:13:36;;;;;;;18.02;16.23;;;;;;;5.53;72.23;101393.31;2088859;28;20674;-70
2022/04/21 04:14:38;;;;;;;18.60;16.70;;;;;;;5.68;71.96;101416.22;2089198;28;20168;-70
2022/04/21 04:15:39;;;;;;;17.92;16.13;;;;;;;5.69;71.77;101410.34;2087579;28;20180;-70
2022/04/21 04:16:39;;;;;;;18.67;16.67;;;;;;;5.69;72.49;101409.56;2087585;28;20646;-70
2022/04/21 04:17:40;;;;;;;19.03;17.13;;;;;;;5.67;72.19;101406.41;2088580;28;20259;-70
2022/04/21 04:18:40;;;;;;;18.40;16.50;;;;;;;5.62;71.82;101399.31;2089277;28;20172;-70
2022/04/21 04:19:41;;;;;;;19.17;17.17;;;;;;;5.74;72.08;101412.75;2088482;28;20175;-70
2022/04/21 04:20:42;;;;;;;18.03;16.23;;;;;;;5.65;71.76;101389.50;2089044;28;20251;-70
2022/04/21 04:21:42;;;;;;;19.13;16.83;;;;;;;5.79;71.40;101415.16;2089212;28;20222;-70
2022/04/21 04:22:43;;;;;;;19.40;17.30;;;;;;;5.83;72.06;101420.69;2080202;28;20173;-70
2022/04/21 04:23:43;;;;;;;20.73;18.63;;;;;;;4.72;71.98;101235.19;2079952;28;20213;-70
2022/04/21 04:24:44;;;;;;;20.50;17.67;;;;;;;5.87;71.31;101416.84;2088943;28;20204;-70
2022/04/21 04:25:45;;;;;;;19.20;17.20;;;;;;;5.68;71.65;101384.03;2088067;28;20176;-70
2022/04/21 04:26:46;;;;;;;18.33;16.43;;;;;;;5.91;71.63;101420.41;2088194;28;20483;-70
2022/04/21 04:27:46;;;;;;;18.77;16.77;;;;;;;5.94;71.39;101418.84;2079919;28;20575;-70
2022/04/21 04:28:47;;;;;;;18.47;16.10;;;;;;;5.97;71.30;101420.81;2079978;28;20280;-70
2022/04/21 04:29:48;;;;;;;18.13;16.33;;;;;;;5.93;71.84;101409.00;2088177;28;20597;-70
2022/04/21 04:30:49;;;;;;;18.20;16.30;;;;;;;6.03;71.46;101408.28;2080444;28;20248;-70
2022/04/21 04:31:53;;;;;;;17.83;16.03;;;;;;;6.05;71.27;101411.47;2071864;28;20265;-70
2022/04/21 04:32:54;;;;;;;18.60;16.23;;;;;;;6.08;71.93;101416.19;2080789;28;20193;-70
2022/04/21 04:33:55;;;;;;;19.27;17.20;;;;;;;6.05;71.49;101411.47;2088630;28;20183;-70
2022/04/21 04:34:55;;;;;;;17.30;15.50;;;;;;;6.13;71.30;101424.06;2088684;28;20272;-70
2022/04/21 04:35:56;;;;;;;18.83;16.93;;;;;;;6.14;71.46;101420.16;2087582;28;20172;-70
2022/04/21 04:36:56;;;;;;;21.43;19.27;;;;;;;6.10;70.77;101414.63;2077114;28;20294;-70
2022/04/21 04:37:58;;;;;;;19.93;17.83;;;;;;;6.20;71.05;101437.91;2085005;28;20242;-70
2022/04/21 04:38:59;;;;;;;22.05;19.75;;;;;;;6.20;70.97;101421.41;2086379;28;20185;-70
2022/04/21 04:40:00;;;;;;;19.30;17.30;;;;;;;6.24;70.55;101430.44;2090174;28;20240;-70
2022/04/21 04:42:16;;;;;;;18.58;16.70;;;;;;;6.25;71.24;101418.28;2088479;28;20172;-70
2022/04/21 04:42:22;;;;;;;18.80;15.52;;;;;;;6.01;71.05;101405.91;2087775;28;20185;-70
2022/04/21 04:43:23;;;;;;;18.23;16.42;;;;;;;6.23;70.58;101418.66;2088332;28;20164;-70
2022/04/21 04:44:24;;;;;;;18.87;16.87;;;;;;;6.19;70.77;101400.53;2079652;28;20185;-70
2022/04/21 04:46:43;;;;;;;18.08;15.98;;;;;;;6.32;70.29;101412.81;2087572;28;20180;-71
2022/04/21 04:47:43;;;;;;;19.07;17.10;;;;;;;6.32;70.55;101412.81;2088505;28;20278;-71
2022/04/21 04:48:44;;;;;;;18.27;16.47;;;;;;;5.96;70.78;101370.53;2095430;28;20728;-71
2022/04/21 04:49:44;;;;;;;17.97;16.17;;;;;;;6.38;70.85;101416.78;2086803;28;20186;-71
2022/04/21 04:50:46;;;;;;;18.23;16.47;;;;;;;6.41;70.29;101416.78;2085784;28;20267;-71
2022/04/21 04:51:47;;;;;;;19.92;17.83;;;;;;;6.47;70.83;101433.75;2083232;28;20263;-71
2022/04/21 04:52:47;;;;;;;22.70;20.37;;;;;;;6.53;70.70;101426.69;2084950;28;20202;-71
2022/04/21 04:53:48;;;;;;;19.23;17.30;;;;;;;6.58;71.06;101437.34;2079005;28;20673;-71
2022/04/21 04:54:48;;;;;;;18.70;16.80;;;;;;;6.61;71.22;101433.81;2084067;28;20696;-71
2022/04/21 04:55:49;;;;;;;21.77;19.63;;;;;;;6.63;70.88;101434.22;2081369;28;20589;-71
2022/04/21 04:56:49;;;;;;;20.50;18.40;;;;;;;6.67;71.04;101435.81;2083084;28;20645;-71
2022/04/21 04:57:50;;;;;;;24.47;21.97;;;;;;;6.55;70.32;101411.34;2079966;28;20272;-71
2022/04/21 04:58:54;;;;;;;23.27;20.87;;;;;;;6.72;70.61;101437.41;2081330;28;20200;-71
2022/04/21 04:59:55;;;;;;;23.20;20.90;;;;;;;6.66;70.49;101417.69;2084832;28;20765;-71
2022/04/21 05:00:55;;;;;;;19.37;17.47;;;;;;;6.50;70.40;101386.94;2086121;28;20211;-71
2022/04/21 05:01:56;;;;;;;21.30;19.07;;;;;;;6.78;70.74;101427.59;2083819;28;20179;-71
2022/04/21 05:02:56;;;;;;;29.07;26.07;;;;;;;6.47;70.30;101364.91;2074953;28;20185;-71